sensor_id;sensor_type;location;lat;lon;timestamp;P1;durP1;ratioP1;P2;durP2;ratioP2
12826;SDS011;66927;48.812;9.118;2023-07-08T00:00:44;7.30;;;6.57;;
12826;SDS011;66927;48.812;9.118;2023-07-08T00:03:16;7.40;;;6.70;;
12826;SDS011;66927;48.812;9.118;2023-07-08T00:05:43;8.02;;;6.22;;
12826;SDS011;66927;48.812;9.118;2023-07-08T00:08:15;7.80;;;6.43;;
12826;SDS011;66927;48.812;9.118;2023-07-08T00:10:42;7.57;;;6.60;;
12826;SDS011;66927;48.812;9.118;2023-07-08T00:13:07;8.90;;;6.80;;
12826;SDS011;66927;48.812;9.118;2023-07-08T00:15:36;7.07;;;6.37;;
12826;SDS011;66927;48.812;9.118;2023-07-08T00:18:08;6.93;;;6.27;;
12826;SDS011;66927;48.812;9.118;2023-07-08T00:20:53;7.43;;;6.67;;
12826;SDS011;66927;48.812;9.118;2023-07-08T00:23:19;7.35;;;6.65;;
12826;SDS011;66927;48.812;9.118;2023-07-08T00:25:47;6.97;;;6.28;;
12826;SDS011;66927;48.812;9.118;2023-07-08T00:28:25;9.37;;;6.97;;
12826;SDS011;66927;48.812;9.118;2023-07-08T00:30:51;8.38;;;6.30;;
12826;SDS011;66927;48.812;9.118;2023-07-08T00:33:18;6.78;;;6.18;;
12826;SDS011;66927;48.812;9.118;2023-07-08T00:35:44;7.75;;;6.80;;
12826;SDS011;66927;48.812;9.118;2023-07-08T00:40:37;8.70;;;6.70;;
12826;SDS011;66927;48.812;9.118;2023-07-08T00:43:13;7.18;;;6.32;;
12826;SDS011;66927;48.812;9.118;2023-07-08T00:46:01;7.13;;;6.53;;
12826;SDS011;66927;48.812;9.118;2023-07-08T00:48:52;6.80;;;6.10;;
12826;SDS011;66927;48.812;9.118;2023-07-08T00:51:23;6.25;;;5.65;;
12826;SDS011;66927;48.812;9.118;2023-07-08T00:53:51;7.77;;;6.50;;
12826;SDS011;66927;48.812;9.118;2023-07-08T00:56:22;8.57;;;6.53;;
12826;SDS011;66927;48.812;9.118;2023-07-08T00:59:00;6.07;;;5.47;;
12826;SDS011;66927;48.812;9.118;2023-07-08T01:01:34;7.30;;;6.50;;
12826;SDS011;66927;48.812;9.118;2023-07-08T01:04:05;6.70;;;6.10;;
12826;SDS011;66927;48.812;9.118;2023-07-08T01:06:39;6.90;;;6.20;;
12826;SDS011;66927;48.812;9.118;2023-07-08T01:09:10;7.60;;;6.80;;
12826;SDS011;66927;48.812;9.118;2023-07-08T01:11:40;7.10;;;6.40;;
12826;SDS011;66927;48.812;9.118;2023-07-08T01:14:07;7.68;;;6.40;;
12826;SDS011;66927;48.812;9.118;2023-07-08T01:16:37;6.73;;;6.13;;
12826;SDS011;66927;48.812;9.118;2023-07-08T01:19:04;7.63;;;6.83;;
12826;SDS011;66927;48.812;9.118;2023-07-08T01:21:36;8.70;;;6.50;;
12826;SDS011;66927;48.812;9.118;2023-07-08T01:24:04;8.18;;;6.60;;
12826;SDS011;66927;48.812;9.118;2023-07-08T01:26:35;7.47;;;6.70;;
12826;SDS011;66927;48.812;9.118;2023-07-08T01:29:05;8.87;;;7.00;;
12826;SDS011;66927;48.812;9.118;2023-07-08T01:31:32;7.90;;;7.10;;
12826;SDS011;66927;48.812;9.118;2023-07-08T01:33:58;7.70;;;6.90;;
12826;SDS011;66927;48.812;9.118;2023-07-08T01:36:24;7.90;;;6.53;;
12826;SDS011;66927;48.812;9.118;2023-07-08T01:38:54;7.75;;;6.90;;
12826;SDS011;66927;48.812;9.118;2023-07-08T01:41:20;9.75;;;6.72;;
12826;SDS011;66927;48.812;9.118;2023-07-08T01:43:46;7.55;;;6.68;;
12826;SDS011;66927;48.812;9.118;2023-07-08T01:46:18;7.80;;;6.50;;
12826;SDS011;66927;48.812;9.118;2023-07-08T01:48:50;7.53;;;6.73;;
12826;SDS011;66927;48.812;9.118;2023-07-08T01:51:18;6.70;;;6.10;;
12826;SDS011;66927;48.812;9.118;2023-07-08T01:53:44;6.50;;;5.90;;
12826;SDS011;66927;48.812;9.118;2023-07-08T01:56:11;6.77;;;6.07;;
12826;SDS011;66927;48.812;9.118;2023-07-08T01:58:38;7.77;;;6.37;;
12826;SDS011;66927;48.812;9.118;2023-07-08T02:01:04;8.20;;;6.73;;
12826;SDS011;66927;48.812;9.118;2023-07-08T02:03:30;8.65;;;6.13;;
12826;SDS011;66927;48.812;9.118;2023-07-08T02:05:56;7.20;;;6.43;;
12826;SDS011;66927;48.812;9.118;2023-07-08T02:08:22;6.60;;;6.00;;
12826;SDS011;66927;48.812;9.118;2023-07-08T02:10:50;7.00;;;6.30;;
12826;SDS011;66927;48.812;9.118;2023-07-08T02:13:24;7.17;;;6.47;;
12826;SDS011;66927;48.812;9.118;2023-07-08T02:15:51;10.00;;;5.87;;
12826;SDS011;66927;48.812;9.118;2023-07-08T02:18:17;6.67;;;6.03;;
12826;SDS011;66927;48.812;9.118;2023-07-08T02:20:46;7.00;;;6.30;;
12826;SDS011;66927;48.812;9.118;2023-07-08T02:23:12;6.97;;;6.10;;
12826;SDS011;66927;48.812;9.118;2023-07-08T02:25:39;7.37;;;6.40;;
12826;SDS011;66927;48.812;9.118;2023-07-08T02:28:06;6.77;;;6.10;;
12826;SDS011;66927;48.812;9.118;2023-07-08T02:30:32;7.70;;;6.97;;
12826;SDS011;66927;48.812;9.118;2023-07-08T02:32:57;9.53;;;6.27;;
12826;SDS011;66927;48.812;9.118;2023-07-08T02:35:24;6.50;;;5.87;;
12826;SDS011;66927;48.812;9.118;2023-07-08T02:37:52;7.83;;;6.77;;
12826;SDS011;66927;48.812;9.118;2023-07-08T02:40:19;7.50;;;6.77;;
12826;SDS011;66927;48.812;9.118;2023-07-08T02:42:46;7.70;;;6.83;;
12826;SDS011;66927;48.812;9.118;2023-07-08T02:45:12;6.67;;;6.03;;
12826;SDS011;66927;48.812;9.118;2023-07-08T02:47:38;8.17;;;6.60;;
12826;SDS011;66927;48.812;9.118;2023-07-08T02:50:04;7.50;;;6.47;;
12826;SDS011;66927;48.812;9.118;2023-07-08T02:52:31;9.60;;;6.97;;
12826;SDS011;66927;48.812;9.118;2023-07-08T02:54:56;6.90;;;6.13;;
12826;SDS011;66927;48.812;9.118;2023-07-08T02:57:22;8.43;;;6.47;;
12826;SDS011;66927;48.812;9.118;2023-07-08T02:59:47;9.20;;;6.73;;
12826;SDS011;66927;48.812;9.118;2023-07-08T03:02:13;6.97;;;6.20;;
12826;SDS011;66927;48.812;9.118;2023-07-08T03:04:40;9.47;;;6.70;;
12826;SDS011;66927;48.812;9.118;2023-07-08T03:07:07;6.43;;;5.80;;
12826;SDS011;66927;48.812;9.118;2023-07-08T03:09:38;6.93;;;6.23;;
12826;SDS011;66927;48.812;9.118;2023-07-08T03:12:05;7.43;;;6.73;;
12826;SDS011;66927;48.812;9.118;2023-07-08T03:14:31;6.87;;;6.17;;
12826;SDS011;66927;48.812;9.118;2023-07-08T03:16:57;7.20;;;6.50;;
12826;SDS011;66927;48.812;9.118;2023-07-08T03:19:23;7.00;;;6.30;;
12826;SDS011;66927;48.812;9.118;2023-07-08T03:21:49;7.07;;;6.03;;
12826;SDS011;66927;48.812;9.118;2023-07-08T03:24:14;6.87;;;6.20;;
12826;SDS011;66927;48.812;9.118;2023-07-08T03:26:43;6.97;;;6.33;;
12826;SDS011;66927;48.812;9.118;2023-07-08T03:29:13;7.17;;;6.47;;
12826;SDS011;66927;48.812;9.118;2023-07-08T03:31:41;7.37;;;6.60;;
12826;SDS011;66927;48.812;9.118;2023-07-08T03:34:08;9.67;;;8.00;;
12826;SDS011;66927;48.812;9.118;2023-07-08T03:36:36;7.70;;;6.90;;
12826;SDS011;66927;48.812;9.118;2023-07-08T03:39:09;7.87;;;7.07;;
12826;SDS011;66927;48.812;9.118;2023-07-08T03:41:35;7.93;;;6.90;;
12826;SDS011;66927;48.812;9.118;2023-07-08T03:44:00;7.70;;;6.90;;
12826;SDS011;66927;48.812;9.118;2023-07-08T03:46:27;7.60;;;6.80;;
12826;SDS011;66927;48.812;9.118;2023-07-08T03:48:54;7.00;;;6.30;;
12826;SDS011;66927;48.812;9.118;2023-07-08T03:51:21;8.97;;;6.10;;
12826;SDS011;66927;48.812;9.118;2023-07-08T03:53:51;8.73;;;6.80;;
12826;SDS011;66927;48.812;9.118;2023-07-08T03:56:16;6.67;;;5.97;;
12826;SDS011;66927;48.812;9.118;2023-07-08T03:58:43;7.60;;;6.57;;
12826;SDS011;66927;48.812;9.118;2023-07-08T04:01:13;7.13;;;6.43;;
12826;SDS011;66927;48.812;9.118;2023-07-08T04:03:41;7.93;;;6.67;;
12826;SDS011;66927;48.812;9.118;2023-07-08T04:06:07;8.07;;;6.40;;
12826;SDS011;66927;48.812;9.118;2023-07-08T04:08:33;6.80;;;6.13;;
12826;SDS011;66927;48.812;9.118;2023-07-08T04:11:00;8.13;;;7.00;;
12826;SDS011;66927;48.812;9.118;2023-07-08T04:13:26;7.80;;;6.67;;
12826;SDS011;66927;48.812;9.118;2023-07-08T04:15:53;7.47;;;6.67;;
12826;SDS011;66927;48.812;9.118;2023-07-08T04:18:22;7.07;;;6.00;;
12826;SDS011;66927;48.812;9.118;2023-07-08T04:20:48;7.53;;;6.60;;
12826;SDS011;66927;48.812;9.118;2023-07-08T04:23:17;10.57;;;7.27;;
12826;SDS011;66927;48.812;9.118;2023-07-08T04:25:44;6.70;;;6.10;;
12826;SDS011;66927;48.812;9.118;2023-07-08T04:28:11;8.97;;;6.93;;
12826;SDS011;66927;48.812;9.118;2023-07-08T04:30:37;7.73;;;6.93;;
12826;SDS011;66927;48.812;9.118;2023-07-08T04:33:06;7.70;;;6.90;;
12826;SDS011;66927;48.812;9.118;2023-07-08T04:35:33;8.50;;;7.60;;
12826;SDS011;66927;48.812;9.118;2023-07-08T04:38:02;8.53;;;7.60;;
12826;SDS011;66927;48.812;9.118;2023-07-08T04:40:34;8.77;;;7.10;;
12826;SDS011;66927;48.812;9.118;2023-07-08T04:43:05;9.83;;;7.57;;
12826;SDS011;66927;48.812;9.118;2023-07-08T04:45:31;8.43;;;6.83;;
12826;SDS011;66927;48.812;9.118;2023-07-08T04:47:57;8.03;;;7.23;;
12826;SDS011;66927;48.812;9.118;2023-07-08T04:50:23;10.37;;;7.23;;
12826;SDS011;66927;48.812;9.118;2023-07-08T04:52:50;7.87;;;7.00;;
12826;SDS011;66927;48.812;9.118;2023-07-08T04:55:16;7.77;;;6.90;;
12826;SDS011;66927;48.812;9.118;2023-07-08T04:57:42;7.70;;;7.00;;
12826;SDS011;66927;48.812;9.118;2023-07-08T05:00:12;9.03;;;7.07;;
12826;SDS011;66927;48.812;9.118;2023-07-08T05:02:42;7.50;;;6.77;;
12826;SDS011;66927;48.812;9.118;2023-07-08T05:05:07;7.13;;;6.43;;
12826;SDS011;66927;48.812;9.118;2023-07-08T05:07:33;8.57;;;6.93;;
12826;SDS011;66927;48.812;9.118;2023-07-08T05:09:59;8.70;;;7.00;;
12826;SDS011;66927;48.812;9.118;2023-07-08T05:12:25;7.67;;;6.87;;
12826;SDS011;66927;48.812;9.118;2023-07-08T05:14:51;8.10;;;7.30;;
12826;SDS011;66927;48.812;9.118;2023-07-08T05:17:17;8.00;;;6.83;;
12826;SDS011;66927;48.812;9.118;2023-07-08T05:19:43;8.20;;;7.40;;
12826;SDS011;66927;48.812;9.118;2023-07-08T05:22:11;8.67;;;7.27;;
12826;SDS011;66927;48.812;9.118;2023-07-08T05:24:37;7.97;;;6.80;;
12826;SDS011;66927;48.812;9.118;2023-07-08T05:27:04;9.80;;;7.57;;
12826;SDS011;66927;48.812;9.118;2023-07-08T05:29:29;7.63;;;6.80;;
12826;SDS011;66927;48.812;9.118;2023-07-08T05:31:56;7.73;;;6.93;;
12826;SDS011;66927;48.812;9.118;2023-07-08T05:34:22;7.27;;;6.57;;
12826;SDS011;66927;48.812;9.118;2023-07-08T05:36:48;7.93;;;7.13;;
12826;SDS011;66927;48.812;9.118;2023-07-08T05:39:13;7.47;;;6.57;;
12826;SDS011;66927;48.812;9.118;2023-07-08T05:41:39;8.10;;;6.53;;
12826;SDS011;66927;48.812;9.118;2023-07-08T05:44:04;7.77;;;6.90;;
12826;SDS011;66927;48.812;9.118;2023-07-08T05:46:30;7.20;;;6.50;;
12826;SDS011;66927;48.812;9.118;2023-07-08T05:48:56;7.83;;;6.63;;
12826;SDS011;66927;48.812;9.118;2023-07-08T05:51:22;8.03;;;6.90;;
12826;SDS011;66927;48.812;9.118;2023-07-08T05:53:47;7.40;;;6.63;;
12826;SDS011;66927;48.812;9.118;2023-07-08T05:56:13;9.37;;;6.70;;
12826;SDS011;66927;48.812;9.118;2023-07-08T05:58:40;7.53;;;6.80;;
12826;SDS011;66927;48.812;9.118;2023-07-08T06:01:05;7.73;;;6.93;;
12826;SDS011;66927;48.812;9.118;2023-07-08T06:03:31;8.23;;;6.57;;
12826;SDS011;66927;48.812;9.118;2023-07-08T06:05:57;9.47;;;7.40;;
12826;SDS011;66927;48.812;9.118;2023-07-08T06:08:23;10.07;;;6.57;;
12826;SDS011;66927;48.812;9.118;2023-07-08T06:10:49;8.60;;;6.73;;
12826;SDS011;66927;48.812;9.118;2023-07-08T06:13:16;7.00;;;6.30;;
12826;SDS011;66927;48.812;9.118;2023-07-08T06:15:43;8.30;;;6.97;;
12826;SDS011;66927;48.812;9.118;2023-07-08T06:18:09;8.87;;;6.80;;
12826;SDS011;66927;48.812;9.118;2023-07-08T06:20:35;7.50;;;6.43;;
12826;SDS011;66927;48.812;9.118;2023-07-08T06:23:00;7.13;;;6.43;;
12826;SDS011;66927;48.812;9.118;2023-07-08T06:25:26;9.57;;;5.97;;
12826;SDS011;66927;48.812;9.118;2023-07-08T06:27:52;6.60;;;6.00;;
12826;SDS011;66927;48.812;9.118;2023-07-08T06:30:18;7.40;;;6.63;;
12826;SDS011;66927;48.812;9.118;2023-07-08T06:32:43;6.90;;;6.07;;
12826;SDS011;66927;48.812;9.118;2023-07-08T06:35:09;6.07;;;5.47;;
12826;SDS011;66927;48.812;9.118;2023-07-08T06:37:35;7.00;;;5.23;;
12826;SDS011;66927;48.812;9.118;2023-07-08T06:40:01;7.83;;;6.10;;
12826;SDS011;66927;48.812;9.118;2023-07-08T06:42:28;6.40;;;5.80;;
12826;SDS011;66927;48.812;9.118;2023-07-08T06:44:54;9.73;;;5.32;;
12826;SDS011;66927;48.812;9.118;2023-07-08T06:47:20;5.73;;;4.60;;
12826;SDS011;66927;48.812;9.118;2023-07-08T06:49:47;6.23;;;5.33;;
12826;SDS011;66927;48.812;9.118;2023-07-08T06:52:13;7.53;;;4.87;;
12826;SDS011;66927;48.812;9.118;2023-07-08T06:54:39;5.67;;;5.07;;
12826;SDS011;66927;48.812;9.118;2023-07-08T06:57:06;7.07;;;4.67;;
12826;SDS011;66927;48.812;9.118;2023-07-08T06:59:32;5.20;;;4.30;;
12826;SDS011;66927;48.812;9.118;2023-07-08T07:01:58;6.80;;;4.93;;
12826;SDS011;66927;48.812;9.118;2023-07-08T07:04:24;5.93;;;4.63;;
12826;SDS011;66927;48.812;9.118;2023-07-08T07:06:50;5.73;;;5.00;;
12826;SDS011;66927;48.812;9.118;2023-07-08T07:09:15;5.43;;;4.83;;
12826;SDS011;66927;48.812;9.118;2023-07-08T07:11:41;5.47;;;4.70;;
12826;SDS011;66927;48.812;9.118;2023-07-08T07:14:07;5.53;;;4.70;;
12826;SDS011;66927;48.812;9.118;2023-07-08T07:16:33;6.73;;;4.70;;
12826;SDS011;66927;48.812;9.118;2023-07-08T07:18:58;5.37;;;4.67;;
12826;SDS011;66927;48.812;9.118;2023-07-08T07:21:24;6.37;;;4.63;;
12826;SDS011;66927;48.812;9.118;2023-07-08T07:23:50;6.83;;;4.50;;
12826;SDS011;66927;48.812;9.118;2023-07-08T07:26:16;5.50;;;4.80;;
12826;SDS011;66927;48.812;9.118;2023-07-08T07:28:41;5.97;;;4.53;;
12826;SDS011;66927;48.812;9.118;2023-07-08T07:31:07;5.32;;;4.53;;
12826;SDS011;66927;48.812;9.118;2023-07-08T07:33:33;6.87;;;4.87;;
12826;SDS011;66927;48.812;9.118;2023-07-08T07:35:59;7.37;;;4.60;;
12826;SDS011;66927;48.812;9.118;2023-07-08T07:38:25;6.27;;;4.40;;
12826;SDS011;66927;48.812;9.118;2023-07-08T07:40:54;4.97;;;4.30;;
12826;SDS011;66927;48.812;9.118;2023-07-08T07:43:20;6.77;;;4.63;;
12826;SDS011;66927;48.812;9.118;2023-07-08T07:45:50;5.03;;;4.07;;
12826;SDS011;66927;48.812;9.118;2023-07-08T07:48:17;5.43;;;4.07;;
12826;SDS011;66927;48.812;9.118;2023-07-08T07:50:47;5.22;;;3.70;;
12826;SDS011;66927;48.812;9.118;2023-07-08T07:53:14;7.57;;;3.97;;
12826;SDS011;66927;48.812;9.118;2023-07-08T07:55:40;4.57;;;3.50;;
12826;SDS011;66927;48.812;9.118;2023-07-08T07:58:06;4.22;;;3.83;;
12826;SDS011;66927;48.812;9.118;2023-07-08T08:00:33;5.10;;;3.77;;
12826;SDS011;66927;48.812;9.118;2023-07-08T08:02:59;5.80;;;3.77;;
12826;SDS011;66927;48.812;9.118;2023-07-08T08:05:24;4.95;;;3.75;;
12826;SDS011;66927;48.812;9.118;2023-07-08T08:07:50;5.43;;;3.80;;
12826;SDS011;66927;48.812;9.118;2023-07-08T08:10:16;13.17;;;5.50;;
12826;SDS011;66927;48.812;9.118;2023-07-08T08:12:41;7.83;;;4.50;;
12826;SDS011;66927;48.812;9.118;2023-07-08T08:15:07;6.50;;;4.55;;
12826;SDS011;66927;48.812;9.118;2023-07-08T08:17:33;5.68;;;4.32;;
12826;SDS011;66927;48.812;9.118;2023-07-08T08:20:00;4.43;;;4.03;;
12826;SDS011;66927;48.812;9.118;2023-07-08T08:22:26;5.00;;;4.57;;
12826;SDS011;66927;48.812;9.118;2023-07-08T08:24:53;6.65;;;5.20;;
12826;SDS011;66927;48.812;9.118;2023-07-08T08:27:19;5.28;;;4.57;;
12826;SDS011;66927;48.812;9.118;2023-07-08T08:29:44;4.43;;;4.03;;
12826;SDS011;66927;48.812;9.118;2023-07-08T08:32:10;4.65;;;3.70;;
12826;SDS011;66927;48.812;9.118;2023-07-08T08:34:36;5.63;;;3.90;;
12826;SDS011;66927;48.812;9.118;2023-07-08T08:37:02;3.67;;;2.80;;
12826;SDS011;66927;48.812;9.118;2023-07-08T08:39:31;6.05;;;3.15;;
12826;SDS011;66927;48.812;9.118;2023-07-08T08:41:57;5.82;;;3.00;;
12826;SDS011;66927;48.812;9.118;2023-07-08T08:44:26;3.95;;;2.63;;
12826;SDS011;66927;48.812;9.118;2023-07-08T08:49:57;6.07;;;3.50;;
12826;SDS011;66927;48.812;9.118;2023-07-08T08:52:28;3.47;;;3.17;;
12826;SDS011;66927;48.812;9.118;2023-07-08T08:54:54;3.58;;;3.05;;
12826;SDS011;66927;48.812;9.118;2023-07-08T08:57:40;3.42;;;3.13;;
12826;SDS011;66927;48.812;9.118;2023-07-08T09:00:11;4.07;;;2.53;;
12826;SDS011;66927;48.812;9.118;2023-07-08T09:05:35;4.30;;;3.08;;
12826;SDS011;66927;48.812;9.118;2023-07-08T09:13:15;4.60;;;2.28;;
12826;SDS011;66927;48.812;9.118;2023-07-08T09:16:02;4.82;;;2.47;;
12826;SDS011;66927;48.812;9.118;2023-07-08T09:18:56;2.45;;;2.00;;
12826;SDS011;66927;48.812;9.118;2023-07-08T09:24:32;3.28;;;2.30;;
12826;SDS011;66927;48.812;9.118;2023-07-08T09:27:13;3.47;;;2.45;;
12826;SDS011;66927;48.812;9.118;2023-07-08T09:29:39;4.50;;;2.42;;
12826;SDS011;66927;48.812;9.118;2023-07-08T09:32:26;7.90;;;7.18;;
12826;SDS011;66927;48.812;9.118;2023-07-08T09:37:33;3.95;;;2.20;;
12826;SDS011;66927;48.812;9.118;2023-07-08T09:40:00;2.72;;;2.40;;
12826;SDS011;66927;48.812;9.118;2023-07-08T09:42:31;2.50;;;2.30;;
12826;SDS011;66927;48.812;9.118;2023-07-08T09:44:59;2.78;;;2.40;;
12826;SDS011;66927;48.812;9.118;2023-07-08T09:47:27;2.78;;;2.45;;
12826;SDS011;66927;48.812;9.118;2023-07-08T09:49:58;4.65;;;3.00;;
12826;SDS011;66927;48.812;9.118;2023-07-08T09:52:24;2.55;;;2.20;;
12826;SDS011;66927;48.812;9.118;2023-07-08T09:54:51;5.80;;;2.60;;
12826;SDS011;66927;48.812;9.118;2023-07-08T09:57:21;2.88;;;2.58;;
12826;SDS011;66927;48.812;9.118;2023-07-08T09:59:52;3.75;;;2.67;;
12826;SDS011;66927;48.812;9.118;2023-07-08T10:04:55;3.92;;;2.95;;
12826;SDS011;66927;48.812;9.118;2023-07-08T10:07:27;3.47;;;2.72;;
12826;SDS011;66927;48.812;9.118;2023-07-08T10:09:56;4.35;;;2.95;;
12826;SDS011;66927;48.812;9.118;2023-07-08T10:12:27;4.75;;;2.58;;
12826;SDS011;66927;48.812;9.118;2023-07-08T10:14:59;3.40;;;3.10;;
12826;SDS011;66927;48.812;9.118;2023-07-08T10:17:46;3.92;;;3.38;;
12826;SDS011;66927;48.812;9.118;2023-07-08T10:20:12;3.20;;;2.83;;
12826;SDS011;66927;48.812;9.118;2023-07-08T10:31:07;5.07;;;3.03;;
12826;SDS011;66927;48.812;9.118;2023-07-08T10:33:56;5.82;;;3.05;;
12826;SDS011;66927;48.812;9.118;2023-07-08T10:36:28;4.45;;;3.20;;
12826;SDS011;66927;48.812;9.118;2023-07-08T10:41:44;4.72;;;3.42;;
12826;SDS011;66927;48.812;9.118;2023-07-08T10:44:25;5.25;;;4.32;;
12826;SDS011;66927;48.812;9.118;2023-07-08T10:50:12;4.10;;;3.70;;
12826;SDS011;66927;48.812;9.118;2023-07-08T10:52:50;6.88;;;3.75;;
12826;SDS011;66927;48.812;9.118;2023-07-08T11:01:09;6.75;;;3.88;;
12826;SDS011;66927;48.812;9.118;2023-07-08T11:03:43;6.95;;;4.05;;
12826;SDS011;66927;48.812;9.118;2023-07-08T11:06:22;4.90;;;3.85;;
12826;SDS011;66927;48.812;9.118;2023-07-08T11:08:54;4.43;;;3.53;;
12826;SDS011;66927;48.812;9.118;2023-07-08T11:13:54;5.35;;;3.88;;
12826;SDS011;66927;48.812;9.118;2023-07-08T11:16:37;4.07;;;3.38;;
12826;SDS011;66927;48.812;9.118;2023-07-08T11:19:10;6.00;;;3.67;;
12826;SDS011;66927;48.812;9.118;2023-07-08T11:21:47;3.90;;;3.60;;
12826;SDS011;66927;48.812;9.118;2023-07-08T11:24:21;5.22;;;3.50;;
12826;SDS011;66927;48.812;9.118;2023-07-08T11:29:35;6.82;;;3.50;;
12826;SDS011;66927;48.812;9.118;2023-07-08T11:32:02;4.03;;;3.38;;
12826;SDS011;66927;48.812;9.118;2023-07-08T11:34:30;5.78;;;3.83;;
12826;SDS011;66927;48.812;9.118;2023-07-08T11:36:58;12.18;;;3.97;;
12826;SDS011;66927;48.812;9.118;2023-07-08T11:39:28;7.57;;;3.38;;
12826;SDS011;66927;48.812;9.118;2023-07-08T11:42:29;4.18;;;3.10;;
12826;SDS011;66927;48.812;9.118;2023-07-08T11:45:01;9.90;;;4.43;;
12826;SDS011;66927;48.812;9.118;2023-07-08T11:47:37;6.05;;;3.75;;
12826;SDS011;66927;48.812;9.118;2023-07-08T11:50:08;4.93;;;3.50;;
12826;SDS011;66927;48.812;9.118;2023-07-08T11:52:51;3.85;;;3.47;;
12826;SDS011;66927;48.812;9.118;2023-07-08T11:55:26;4.85;;;3.90;;
12826;SDS011;66927;48.812;9.118;2023-07-08T11:58:01;4.65;;;3.72;;
12826;SDS011;66927;48.812;9.118;2023-07-08T12:00:32;3.67;;;3.25;;
12826;SDS011;66927;48.812;9.118;2023-07-08T12:03:04;6.15;;;3.53;;
12826;SDS011;66927;48.812;9.118;2023-07-08T12:05:47;4.00;;;3.38;;
12826;SDS011;66927;48.812;9.118;2023-07-08T12:08:13;5.43;;;3.92;;
12826;SDS011;66927;48.812;9.118;2023-07-08T12:10:42;4.25;;;3.10;;
12826;SDS011;66927;48.812;9.118;2023-07-08T12:13:14;5.53;;;3.60;;
12826;SDS011;66927;48.812;9.118;2023-07-08T12:15:43;3.85;;;3.10;;
12826;SDS011;66927;48.812;9.118;2023-07-08T12:20:52;7.82;;;3.22;;
12826;SDS011;66927;48.812;9.118;2023-07-08T12:23:22;4.05;;;3.63;;
12826;SDS011;66927;48.812;9.118;2023-07-08T12:25:49;4.35;;;3.22;;
12826;SDS011;66927;48.812;9.118;2023-07-08T12:28:16;5.82;;;3.47;;
12826;SDS011;66927;48.812;9.118;2023-07-08T12:30:43;4.63;;;3.50;;
12826;SDS011;66927;48.812;9.118;2023-07-08T12:33:13;3.83;;;3.20;;
12826;SDS011;66927;48.812;9.118;2023-07-08T12:35:44;3.42;;;3.13;;
12826;SDS011;66927;48.812;9.118;2023-07-08T12:40:53;3.45;;;3.15;;
12826;SDS011;66927;48.812;9.118;2023-07-08T12:43:21;5.10;;;3.10;;
12826;SDS011;66927;48.812;9.118;2023-07-08T12:45:47;3.90;;;3.10;;
12826;SDS011;66927;48.812;9.118;2023-07-08T12:48:13;3.88;;;3.22;;
12826;SDS011;66927;48.812;9.118;2023-07-08T12:50:39;5.05;;;3.17;;
12826;SDS011;66927;48.812;9.118;2023-07-08T12:53:05;6.80;;;3.30;;
12826;SDS011;66927;48.812;9.118;2023-07-08T12:55:38;5.03;;;3.50;;
12826;SDS011;66927;48.812;9.118;2023-07-08T12:58:08;4.97;;;4.05;;
12826;SDS011;66927;48.812;9.118;2023-07-08T13:00:39;5.60;;;4.18;;
12826;SDS011;66927;48.812;9.118;2023-07-08T13:03:07;4.40;;;3.40;;
12826;SDS011;66927;48.812;9.118;2023-07-08T13:05:38;4.15;;;2.97;;
12826;SDS011;66927;48.812;9.118;2023-07-08T13:08:10;5.20;;;3.13;;
12826;SDS011;66927;48.812;9.118;2023-07-08T13:10:40;4.18;;;3.10;;
12826;SDS011;66927;48.812;9.118;2023-07-08T13:13:08;3.20;;;2.90;;
12826;SDS011;66927;48.812;9.118;2023-07-08T13:15:40;3.25;;;2.95;;
12826;SDS011;66927;48.812;9.118;2023-07-08T13:20:40;4.72;;;3.40;;
12826;SDS011;66927;48.812;9.118;2023-07-08T13:23:08;3.30;;;2.80;;
12826;SDS011;66927;48.812;9.118;2023-07-08T13:25:36;4.43;;;3.22;;
12826;SDS011;66927;48.812;9.118;2023-07-08T13:30:51;2.95;;;2.65;;
12826;SDS011;66927;48.812;9.118;2023-07-08T13:33:19;5.15;;;3.08;;
12826;SDS011;66927;48.812;9.118;2023-07-08T13:35:45;4.32;;;3.33;;
12826;SDS011;66927;48.812;9.118;2023-07-08T13:38:17;3.22;;;2.95;;
12826;SDS011;66927;48.812;9.118;2023-07-08T13:40:55;3.97;;;3.15;;
12826;SDS011;66927;48.812;9.118;2023-07-08T13:43:34;4.80;;;3.67;;
12826;SDS011;66927;48.812;9.118;2023-07-08T13:46:03;3.15;;;2.65;;
12826;SDS011;66927;48.812;9.118;2023-07-08T13:48:36;2.75;;;2.55;;
12826;SDS011;66927;48.812;9.118;2023-07-08T13:51:18;3.58;;;2.85;;
12826;SDS011;66927;48.812;9.118;2023-07-08T13:56:22;4.25;;;3.13;;
12826;SDS011;66927;48.812;9.118;2023-07-08T13:58:49;5.80;;;3.00;;
12826;SDS011;66927;48.812;9.118;2023-07-08T14:01:22;3.20;;;2.90;;
12826;SDS011;66927;48.812;9.118;2023-07-08T14:03:50;3.38;;;2.65;;
12826;SDS011;66927;48.812;9.118;2023-07-08T14:06:18;3.85;;;3.38;;
12826;SDS011;66927;48.812;9.118;2023-07-08T14:08:50;3.58;;;3.10;;
12826;SDS011;66927;48.812;9.118;2023-07-08T14:11:18;4.55;;;2.95;;
12826;SDS011;66927;48.812;9.118;2023-07-08T14:13:44;6.45;;;2.65;;
12826;SDS011;66927;48.812;9.118;2023-07-08T14:16:27;3.08;;;2.20;;
12826;SDS011;66927;48.812;9.118;2023-07-08T14:18:55;2.60;;;2.38;;
12826;SDS011;66927;48.812;9.118;2023-07-08T14:21:22;3.33;;;2.55;;
12826;SDS011;66927;48.812;9.118;2023-07-08T14:23:48;3.35;;;2.78;;
12826;SDS011;66927;48.812;9.118;2023-07-08T14:26:14;3.25;;;2.50;;
12826;SDS011;66927;48.812;9.118;2023-07-08T14:28:40;2.63;;;2.42;;
12826;SDS011;66927;48.812;9.118;2023-07-08T14:31:12;3.65;;;2.85;;
12826;SDS011;66927;48.812;9.118;2023-07-08T14:33:40;3.58;;;2.53;;
12826;SDS011;66927;48.812;9.118;2023-07-08T14:36:09;4.25;;;2.67;;
12826;SDS011;66927;48.812;9.118;2023-07-08T14:38:36;3.28;;;2.97;;
12826;SDS011;66927;48.812;9.118;2023-07-08T14:41:02;6.53;;;5.78;;
12826;SDS011;66927;48.812;9.118;2023-07-08T14:43:29;5.03;;;3.33;;
12826;SDS011;66927;48.812;9.118;2023-07-08T14:45:57;3.97;;;3.20;;
12826;SDS011;66927;48.812;9.118;2023-07-08T14:48:27;10.45;;;9.25;;
12826;SDS011;66927;48.812;9.118;2023-07-08T14:50:53;4.45;;;4.05;;
12826;SDS011;66927;48.812;9.118;2023-07-08T14:53:19;4.15;;;2.92;;
12826;SDS011;66927;48.812;9.118;2023-07-08T14:55:45;4.53;;;2.90;;
12826;SDS011;66927;48.812;9.118;2023-07-08T14:58:23;3.67;;;3.38;;
12826;SDS011;66927;48.812;9.118;2023-07-08T15:00:58;3.15;;;2.78;;
12826;SDS011;66927;48.812;9.118;2023-07-08T15:03:27;3.30;;;2.97;;
12826;SDS011;66927;48.812;9.118;2023-07-08T15:05:53;3.67;;;2.92;;
12826;SDS011;66927;48.812;9.118;2023-07-08T15:08:19;3.20;;;2.90;;
12826;SDS011;66927;48.812;9.118;2023-07-08T15:10:46;5.28;;;2.92;;
12826;SDS011;66927;48.812;9.118;2023-07-08T15:13:13;3.63;;;2.88;;
12826;SDS011;66927;48.812;9.118;2023-07-08T15:15:40;3.58;;;3.28;;
12826;SDS011;66927;48.812;9.118;2023-07-08T15:18:10;9.23;;;6.38;;
12826;SDS011;66927;48.812;9.118;2023-07-08T15:20:39;4.10;;;3.05;;
12826;SDS011;66927;48.812;9.118;2023-07-08T15:23:05;3.00;;;2.42;;
12826;SDS011;66927;48.812;9.118;2023-07-08T15:25:31;3.20;;;2.90;;
12826;SDS011;66927;48.812;9.118;2023-07-08T15:28:00;2.80;;;2.60;;
12826;SDS011;66927;48.812;9.118;2023-07-08T15:30:27;3.42;;;2.65;;
12826;SDS011;66927;48.812;9.118;2023-07-08T15:32:55;4.68;;;2.80;;
12826;SDS011;66927;48.812;9.118;2023-07-08T15:35:25;4.35;;;2.85;;
12826;SDS011;66927;48.812;9.118;2023-07-08T15:37:57;3.95;;;3.20;;
12826;SDS011;66927;48.812;9.118;2023-07-08T15:40:24;4.50;;;3.35;;
12826;SDS011;66927;48.812;9.118;2023-07-08T15:42:55;6.88;;;3.30;;
12826;SDS011;66927;48.812;9.118;2023-07-08T15:45:27;5.95;;;3.28;;
12826;SDS011;66927;48.812;9.118;2023-07-08T15:47:55;4.60;;;3.25;;
12826;SDS011;66927;48.812;9.118;2023-07-08T15:50:22;3.88;;;3.10;;
12826;SDS011;66927;48.812;9.118;2023-07-08T15:52:49;3.58;;;2.80;;
12826;SDS011;66927;48.812;9.118;2023-07-08T15:55:38;3.42;;;2.83;;
12826;SDS011;66927;48.812;9.118;2023-07-08T15:58:05;5.78;;;3.08;;